Time;durP1;ratioP1;P1;durP2;ratioP2;P2;SDS_P1;SDS_P2;PMS_P1;PMS_P2;Temp;Humidity;BMP_temperature;BMP_pressure;BME280_temperature;BME280_humidity;BME280_pressure;Samples;Min_cycle;Max_cycle;Signal;HPM_P1;HPM_P2
2022/09/23 05:00:15;;;;;;;3.17;2.93;;;10.00;97.20;;;;;;1694297;29;20726;-68
2022/09/23 05:01:10;;;;;;;5.40;4.03;;;10.00;97.20;;;;;;1694277;29;20204;-68
2022/09/23 05:02:02;;;;;;;3.60;3.30;;;10.00;97.20;;;;;;1694230;29;20307;-68
2022/09/23 05:02:53;;;;;;;6.13;3.78;;;10.00;97.20;;;;;;1694357;29;20215;-68
2022/09/23 05:03:45;;;;;;;4.00;3.70;;;10.00;97.20;;;;;;1694195;29;20279;-68
2022/09/23 05:04:36;;;;;;;4.40;4.00;;;10.00;97.20;;;;;;1693451;29;20289;-68
2022/09/23 05:05:30;;;;;;;3.78;3.40;;;10.00;97.20;;;;;;1694294;29;20204;-68
2022/09/23 05:06:21;;;;;;;4.32;4.03;;;10.00;97.20;;;;;;1694215;29;20212;-68
2022/09/23 05:07:13;;;;;;;5.00;4.40;;;10.00;97.20;;;;;;1694003;29;20204;-68
2022/09/23 05:08:04;;;;;;;3.92;3.63;;;10.00;97.20;;;;;;1694241;29;20706;-68
2022/09/23 05:08:57;;;;;;;4.00;3.70;;;10.00;97.20;;;;;;1694311;29;20655;-68
2022/09/23 05:09:47;;;;;;;4.03;3.72;;;10.00;97.20;;;;;;1693778;29;20211;-68
2022/09/23 05:10:40;;;;;;;4.33;3.83;;;10.00;97.20;;;;;;1694311;29;20196;-68
2022/09/23 05:11:31;;;;;;;4.10;3.60;;;10.00;97.20;;;;;;1694130;29;20232;-69
2022/09/23 05:12:23;;;;;;;3.30;3.00;;;10.00;97.20;;;;;;1694182;29;20530;-68
2022/09/23 05:13:14;;;;;;;3.70;3.40;;;10.00;97.20;;;;;;1694184;29;20246;-68
2022/09/23 05:14:05;;;;;;;3.40;3.10;;;10.00;97.20;;;;;;1694211;29;20203;-69
2022/09/23 05:14:56;;;;;;;3.95;3.65;;;10.00;97.20;;;;;;1694192;29;20208;-68
2022/09/23 05:15:48;;;;;;;3.53;3.17;;;10.00;97.20;;;;;;1694298;29;20204;-69
2022/09/23 05:16:40;;;;;;;3.92;3.63;;;10.00;97.20;;;;;;1694024;29;20208;-68
2022/09/23 05:17:31;;;;;;;4.30;3.65;;;10.00;97.20;;;;;;1694235;29;20251;-68
2022/09/23 05:18:22;;;;;;;3.27;3.07;;;10.00;97.20;;;;;;1694292;29;20228;-68
2022/09/23 05:19:14;;;;;;;3.60;3.30;;;10.00;97.20;;;;;;1693686;29;20208;-69
2022/09/23 05:20:07;;;;;;;3.50;3.20;;;10.00;97.20;;;;;;1694239;29;20210;-68
2022/09/23 05:20:58;;;;;;;3.83;3.47;;;10.00;97.20;;;;;;1693572;29;20298;-68
2022/09/23 05:21:49;;;;;;;3.50;3.20;;;10.00;97.20;;;;;;1694221;29;20228;-68
2022/09/23 05:22:40;;;;;;;4.15;3.85;;;10.00;97.20;;;;;;1694209;29;20254;-68
2022/09/23 05:23:32;;;;;;;3.47;3.20;;;10.00;97.20;;;;;;1693980;29;20204;-68
2022/09/23 05:24:23;;;;;;;4.25;3.58;;;10.00;97.20;;;;;;1694201;29;20294;-69
2022/09/23 05:25:15;;;;;;;3.65;3.35;;;10.00;97.20;;;;;;1694145;29;20255;-69
2022/09/23 05:26:08;;;;;;;3.55;3.25;;;10.00;97.20;;;;;;1694276;29;20208;-68
2022/09/23 05:27:00;;;;;;;4.35;3.58;;;10.00;97.20;;;;;;1693849;29;20283;-68
2022/09/23 05:27:51;;;;;;;4.65;3.40;;;10.00;97.20;;;;;;1693949;29;20196;-68
2022/09/23 05:28:43;;;;;;;4.40;3.10;;;10.00;97.20;;;;;;1694239;29;20208;-68
2022/09/23 05:29:34;;;;;;;3.20;3.00;;;10.00;97.20;;;;;;1693683;29;20212;-68
2022/09/23 05:30:26;;;;;;;3.30;3.00;;;10.00;97.20;;;;;;1694169;29;20295;-69
2022/09/23 05:31:20;;;;;;;4.05;3.67;;;10.00;97.20;;;;;;1693873;29;20255;-68
2022/09/23 05:32:11;;;;;;;3.38;3.17;;;10.00;97.20;;;;;;1693987;29;20263;-68
2022/09/23 05:33:03;;;;;;;4.53;3.45;;;10.00;97.20;;;;;;1694095;29;20203;-68
2022/09/23 05:33:57;;;;;;;3.38;3.08;;;10.00;97.20;;;;;;1694068;29;20204;-68
2022/09/23 05:34:47;;;;;;;3.63;3.42;;;10.00;97.20;;;;;;1694137;29;20208;-68
2022/09/23 05:35:38;;;;;;;3.20;3.00;;;10.00;97.20;;;;;;1694040;29;20207;-68
2022/09/23 05:36:34;;;;;;;4.95;3.58;;;10.00;97.20;;;;;;1694097;29;20662;-68
2022/09/23 05:37:24;;;;;;;3.25;3.05;;;10.00;97.20;;;;;;1693588;29;20211;-68
2022/09/23 05:38:16;;;;;;;4.30;3.70;;;10.00;97.20;;;;;;1694003;29;20199;-68
2022/09/23 05:39:07;;;;;;;3.78;3.47;;;10.00;97.20;;;;;;1693548;29;20243;-68
2022/09/23 05:39:59;;;;;;;3.20;2.97;;;10.00;97.20;;;;;;1694073;29;20220;-69
2022/09/23 05:40:54;;;;;;;3.90;3.58;;;10.00;97.20;;;;;;1693923;29;20203;-68
2022/09/23 05:41:46;;;;;;;3.83;3.53;;;10.00;97.20;;;;;;1694004;29;20200;-69
2022/09/23 05:42:37;;;;;;;3.95;3.65;;;10.00;97.20;;;;;;1694008;29;20578;-68
2022/09/23 05:43:28;;;;;;;4.00;3.70;;;10.10;97.20;;;;;;1693995;29;20628;-68
2022/09/23 05:44:19;;;;;;;3.70;3.30;;;10.00;97.20;;;;;;1694063;29;20671;-69
2022/09/23 05:45:11;;;;;;;4.03;3.70;;;10.00;97.20;;;;;;1694104;29;20789;-70
2022/09/23 05:46:03;;;;;;;3.90;3.47;;;10.00;97.20;;;;;;1693947;29;20486;-68
2022/09/23 05:46:56;;;;;;;3.88;3.58;;;10.00;97.20;;;;;;1693756;29;20271;-68
2022/09/23 05:47:47;;;;;;;3.53;3.22;;;10.00;97.20;;;;;;1693943;29;20216;-68
2022/09/23 05:48:41;;;;;;;3.70;3.40;;;10.00;97.20;;;;;;1694085;29;20206;-69
2022/09/23 05:49:31;;;;;;;3.92;3.63;;;10.00;97.20;;;;;;1693094;29;20207;-69
2022/09/23 05:50:23;;;;;;;4.00;3.70;;;10.00;97.20;;;;;;1693933;29;20206;-68
2022/09/23 05:51:16;;;;;;;4.63;4.03;;;10.00;97.20;;;;;;1693788;29;20207;-69
2022/09/23 05:52:07;;;;;;;4.35;3.95;;;10.00;97.20;;;;;;1693954;29;20231;-69
2022/09/23 05:52:58;;;;;;;3.67;3.30;;;10.10;97.20;;;;;;1693926;29;20208;-68
2022/09/23 05:53:51;;;;;;;3.80;3.30;;;10.10;97.20;;;;;;1693634;29;20211;-69
2022/09/23 05:54:42;;;;;;;3.63;3.42;;;10.10;97.20;;;;;;1693968;29;20447;-69
2022/09/23 05:55:35;;;;;;;4.10;3.70;;;10.10;97.20;;;;;;1694003;29;20211;-68
2022/09/23 05:56:27;;;;;;;3.50;3.20;;;10.10;97.20;;;;;;1693977;29;20227;-69
2022/09/23 05:57:19;;;;;;;3.88;3.20;;;10.10;97.20;;;;;;1693795;29;20207;-69
2022/09/23 05:58:10;;;;;;;3.65;3.35;;;10.10;97.20;;;;;;1694062;29;20218;-68
2022/09/23 05:59:03;;;;;;;3.60;3.30;;;10.10;97.20;;;;;;1693495;29;20255;-68
2022/09/23 05:59:54;;;;;;;3.47;3.17;;;10.10;97.20;;;;;;1693921;29;20230;-69
2022/09/23 06:00:48;;;;;;;4.03;3.73;;;10.10;97.20;;;;;;1693424;29;20689;-69
2022/09/23 06:01:39;;;;;;;3.90;3.33;;;10.20;97.20;;;;;;1693731;29;20199;-68
2022/09/23 06:02:32;;;;;;;3.50;3.20;;;10.20;97.20;;;;;;1693967;29;20584;-68
2022/09/23 06:03:24;;;;;;;3.72;3.42;;;10.20;97.20;;;;;;1694002;29;20270;-68
2022/09/23 06:04:16;;;;;;;4.10;3.70;;;10.20;97.20;;;;;;1693945;29;20214;-69
2022/09/23 06:05:07;;;;;;;4.03;3.72;;;10.20;97.20;;;;;;1694017;29;20654;-69
2022/09/23 06:05:59;;;;;;;4.80;4.30;;;10.20;97.20;;;;;;1693843;29;20247;-68
2022/09/23 06:06:49;;;;;;;4.03;3.45;;;10.30;97.20;;;;;;1693728;29;20549;-69
2022/09/23 06:07:41;;;;;;;3.70;3.40;;;10.30;97.20;;;;;;1693915;29;20210;-68
2022/09/23 06:08:33;;;;;;;4.30;3.90;;;10.30;97.20;;;;;;1693927;29;20225;-69
2022/09/23 06:09:24;;;;;;;4.00;3.70;;;10.30;97.20;;;;;;1693464;29;20227;-69
2022/09/23 06:10:15;;;;;;;3.55;3.05;;;10.30;97.20;;;;;;1693877;29;20236;-68
2022/09/23 06:11:08;;;;;;;3.30;3.00;;;10.30;97.20;;;;;;1693620;29;20203;-68
2022/09/23 06:11:58;;;;;;;3.70;3.40;;;10.40;97.20;;;;;;1693772;29;20467;-68
2022/09/23 06:12:50;;;;;;;4.13;3.50;;;10.40;97.20;;;;;;1693983;29;20286;-68
2022/09/23 06:13:41;;;;;;;3.30;3.00;;;10.40;97.20;;;;;;1693894;29;20733;-68
2022/09/23 06:14:33;;;;;;;3.58;3.28;;;10.50;97.20;;;;;;1693924;29;20209;-68
2022/09/23 06:15:25;;;;;;;4.50;3.45;;;10.50;97.20;;;;;;1693971;29;20214;-68
2022/09/23 06:16:16;;;;;;;4.90;3.60;;;10.50;97.20;;;;;;1693935;29;20282;-68
2022/09/23 06:17:07;;;;;;;3.95;3.65;;;10.50;97.20;;;;;;1693768;29;20207;-69
2022/09/23 06:18:00;;;;;;;4.40;4.00;;;10.60;97.20;;;;;;1693875;29;20199;-68
2022/09/23 06:18:51;;;;;;;3.90;3.60;;;10.60;97.20;;;;;;1693887;29;20211;-69
2022/09/23 06:19:43;;;;;;;4.20;3.77;;;10.60;97.20;;;;;;1693437;29;20207;-68
2022/09/23 06:20:34;;;;;;;4.65;4.20;;;10.70;97.20;;;;;;1693925;29;20207;-68
2022/09/23 06:21:26;;;;;;;4.23;3.93;;;10.70;97.20;;;;;;1693806;29;20210;-69
2022/09/23 06:22:17;;;;;;;4.07;3.78;;;10.70;97.20;;;;;;1693879;29;20540;-69
2022/09/23 06:23:11;;;;;;;4.63;3.80;;;10.80;97.20;;;;;;1693947;29;20287;-69
2022/09/23 06:24:02;;;;;;;4.18;3.75;;;10.80;97.20;;;;;;1693914;29;20211;-69
2022/09/23 06:24:54;;;;;;;4.18;3.75;;;10.80;97.20;;;;;;1693838;29;20204;-69
2022/09/23 06:25:44;;;;;;;4.50;4.10;;;10.90;97.20;;;;;;1693968;29;20207;-69
2022/09/23 06:26:37;;;;;;;5.80;3.93;;;10.90;97.20;;;;;;1693708;29;20303;-69
2022/09/23 06:27:27;;;;;;;4.65;3.97;;;10.90;97.20;;;;;;1693647;29;20562;-69
2022/09/23 06:28:19;;;;;;;4.47;4.03;;;10.90;97.20;;;;;;1693852;29;20329;-69
2022/09/23 06:29:11;;;;;;;3.95;3.60;;;10.90;97.20;;;;;;1693378;29;20253;-69
2022/09/23 06:30:02;;;;;;;3.63;3.30;;;11.00;97.20;;;;;;1693833;29;20203;-69
2022/09/23 06:30:56;;;;;;;5.95;3.78;;;11.00;97.20;;;;;;1687260;29;20208;-69
2022/09/23 06:31:49;;;;;;;4.43;4.13;;;11.00;97.20;;;;;;1687315;29;20232;-69
2022/09/23 06:32:41;;;;;;;4.57;4.10;;;11.00;97.20;;;;;;1687426;29;20204;-69
2022/09/23 06:33:34;;;;;;;4.30;4.00;;;11.00;97.20;;;;;;1687412;29;20679;-69
2022/09/23 06:34:25;;;;;;;4.13;3.72;;;11.00;97.20;;;;;;1687354;29;20215;-69
2022/09/23 06:35:17;;;;;;;4.67;4.27;;;11.00;97.20;;;;;;1687333;29;20211;-69
2022/09/23 06:36:08;;;;;;;4.70;4.30;;;11.00;97.20;;;;;;1687431;29;20208;-69
2022/09/23 06:37:00;;;;;;;3.90;3.60;;;11.00;97.20;;;;;;1687087;29;20208;-69
2022/09/23 06:37:51;;;;;;;5.75;4.93;;;11.00;97.20;;;;;;1687418;29;20204;-69
2022/09/23 06:38:44;;;;;;;4.75;4.35;;;11.00;97.20;;;;;;1687372;29;20656;-69
2022/09/23 06:39:34;;;;;;;4.45;4.05;;;11.00;97.20;;;;;;1686786;29;20208;-69
2022/09/23 06:40:26;;;;;;;4.90;4.50;;;11.10;97.20;;;;;;1687392;29;20212;-69
2022/09/23 06:41:19;;;;;;;5.50;5.00;;;11.10;97.20;;;;;;1687206;29;20238;-69
2022/09/23 06:42:11;;;;;;;4.60;4.20;;;11.10;97.20;;;;;;1687180;29;20224;-69
2022/09/23 06:43:02;;;;;;;4.85;4.32;;;11.20;97.20;;;;;;1687334;29;20216;-69
2022/09/23 06:43:53;;;;;;;5.40;4.73;;;11.20;97.20;;;;;;1687270;29;20291;-69
2022/09/23 06:44:44;;;;;;;4.88;4.25;;;11.30;97.20;;;;;;1687361;29;20232;-69
2022/09/23 06:45:36;;;;;;;6.30;5.00;;;11.30;97.20;;;;;;1687373;29;20224;-69
2022/09/23 06:46:28;;;;;;;5.32;4.82;;;11.40;97.20;;;;;;1687387;29;20212;-69
2022/09/23 06:47:19;;;;;;;5.10;4.70;;;11.40;97.20;;;;;;1687117;29;20239;-69
2022/09/23 06:48:10;;;;;;;6.05;4.32;;;11.40;97.20;;;;;;1687351;29;20231;-69
2022/09/23 06:49:04;;;;;;;4.75;4.35;;;11.50;97.20;;;;;;1686825;29;20735;-70
2022/09/23 06:49:54;;;;;;;5.00;4.60;;;11.50;97.20;;;;;;1687354;29;20208;-69
2022/09/23 06:50:47;;;;;;;6.27;3.80;;;11.60;97.20;;;;;;1687303;29;20276;-69
2022/09/23 06:51:39;;;;;;;4.20;3.90;;;11.60;97.20;;;;;;1687047;29;20204;-69
2022/09/23 06:52:30;;;;;;;4.45;4.15;;;11.70;97.20;;;;;;1687266;29;20212;-69
2022/09/23 06:53:22;;;;;;;5.00;4.55;;;11.70;97.20;;;;;;1687369;29;20212;-69
2022/09/23 06:54:14;;;;;;;5.13;4.72;;;11.70;97.20;;;;;;1687314;29;20659;-69
2022/09/23 06:55:07;;;;;;;4.45;4.05;;;11.80;97.20;;;;;;1687330;29;20240;-70
2022/09/23 06:56:01;;;;;;;5.20;4.10;;;11.80;97.20;;;;;;1687186;29;20196;-69
2022/09/23 06:56:53;;;;;;;3.97;3.67;;;11.90;97.20;;;;;;1687120;29;20216;-69
2022/09/23 06:57:43;;;;;;;4.80;4.40;;;11.90;97.20;;;;;;1687613;29;20655;-69
2022/09/23 06:58:36;;;;;;;4.53;3.83;;;11.90;97.20;;;;;;1693755;29;20631;-69
2022/09/23 06:59:27;;;;;;;4.55;4.25;;;12.00;97.20;;;;;;1693363;29;20660;-69
2022/09/23 07:00:19;;;;;;;4.37;3.90;;;12.00;97.20;;;;;;1693391;29;20685;-69
2022/09/23 07:01:14;;;;;;;4.00;3.70;;;12.10;97.20;;;;;;1687899;29;20208;-69
2022/09/23 07:02:07;;;;;;;4.75;4.35;;;12.10;97.20;;;;;;1687324;29;20248;-69
2022/09/23 07:02:58;;;;;;;4.47;4.15;;;12.20;97.20;;;;;;1687293;29;20213;-69
2022/09/23 07:03:50;;;;;;;3.87;3.53;;;12.20;97.20;;;;;;1687388;29;20240;-69
2022/09/23 07:04:42;;;;;;;4.22;3.92;;;12.30;97.20;;;;;;1687291;29;20205;-69
2022/09/23 07:05:34;;;;;;;4.82;4.43;;;12.30;97.20;;;;;;1687350;29;20698;-69
2022/09/23 07:06:24;;;;;;;4.55;4.25;;;12.30;97.20;;;;;;1687289;29;20228;-69
2022/09/23 07:07:17;;;;;;;4.63;4.10;;;12.40;97.20;;;;;;1687098;29;20209;-69
2022/09/23 07:08:08;;;;;;;4.90;4.28;;;12.40;97.20;;;;;;1687429;29;20229;-69
2022/09/23 07:09:00;;;;;;;4.20;3.88;;;12.50;97.20;;;;;;1687317;29;20605;-69
2022/09/23 07:09:51;;;;;;;4.50;3.90;;;12.50;97.20;;;;;;1687427;29;20719;-69
2022/09/23 07:10:43;;;;;;;4.80;4.40;;;12.50;97.20;;;;;;1687388;29;20664;-69
2022/09/23 07:11:34;;;;;;;4.25;3.85;;;12.60;97.20;;;;;;1686948;29;20520;-69
2022/09/23 07:12:26;;;;;;;4.30;4.00;;;12.60;97.20;;;;;;1688508;29;20208;-69
2022/09/23 07:13:16;;;;;;;4.40;4.05;;;12.60;97.20;;;;;;1688512;29;20205;-69
2022/09/23 07:14:08;;;;;;;4.40;4.00;;;12.70;97.20;;;;;;1688899;29;20204;-69
2022/09/23 07:14:59;;;;;;;4.90;4.60;;;12.70;97.20;;;;;;1688445;29;20200;-69
2022/09/23 07:15:52;;;;;;;4.85;4.25;;;12.80;97.20;;;;;;1688530;29;20291;-69
2022/09/23 07:16:44;;;;;;;4.82;3.97;;;12.80;97.20;;;;;;1688123;29;20209;-70
2022/09/23 07:17:34;;;;;;;4.70;4.30;;;12.80;97.20;;;;;;1688484;29;20255;-69
2022/09/23 07:18:27;;;;;;;4.27;3.97;;;12.90;97.20;;;;;;1688571;29;20239;-69
2022/09/23 07:19:19;;;;;;;4.10;3.80;;;12.90;97.20;;;;;;1687932;29;20464;-70
2022/09/23 07:20:11;;;;;;;4.30;4.00;;;13.00;97.20;;;;;;1688492;29;20213;-69
2022/09/23 07:21:08;;;;;;;5.22;3.92;;;13.00;97.20;;;;;;1688356;29;20715;-69
2022/09/23 07:21:58;;;;;;;4.30;4.00;;;13.00;97.20;;;;;;1688313;29;20260;-69
2022/09/23 07:22:51;;;;;;;3.70;3.40;;;13.10;97.20;;;;;;1688589;29;20212;-69
2022/09/23 07:23:42;;;;;;;3.90;3.60;;;13.10;97.20;;;;;;1688441;29;20295;-69
2022/09/23 07:24:33;;;;;;;3.87;3.57;;;13.10;97.20;;;;;;1688515;29;20200;-69
2022/09/23 07:25:25;;;;;;;4.45;4.15;;;13.20;97.20;;;;;;1688469;29;20507;-69
2022/09/23 07:26:17;;;;;;;4.20;3.80;;;13.20;97.20;;;;;;1688385;29;20216;-69
2022/09/23 07:27:09;;;;;;;4.47;3.97;;;13.30;97.20;;;;;;1688344;29;20207;-69
2022/09/23 07:28:00;;;;;;;4.68;4.30;;;13.30;97.20;;;;;;1688427;29;20204;-69
2022/09/23 07:29:03;;;;;;;4.82;4.20;;;13.30;97.20;;;;;;1691342;29;20243;-69
2022/09/23 07:29:54;;;;;;;7.28;4.50;;;13.40;97.20;;;;;;1694950;29;20283;-69
2022/09/23 07:30:46;;;;;;;4.40;4.00;;;13.40;97.20;;;;;;1694939;29;20207;-70
2022/09/23 07:31:37;;;;;;;5.93;3.75;;;13.40;97.20;;;;;;1694660;29;20212;-69
2022/09/23 07:32:29;;;;;;;8.57;4.50;;;13.40;97.20;;;;;;1694889;29;20227;-69
2022/09/23 07:33:19;;;;;;;4.85;4.35;;;13.50;97.20;;;;;;1694891;29;20211;-70
2022/09/23 07:34:11;;;;;;;5.50;4.13;;;13.50;97.20;;;;;;1694942;29;20236;-69
2022/09/23 07:35:02;;;;;;;5.65;4.07;;;13.50;97.20;;;;;;1694961;29;20223;-69
2022/09/23 07:35:55;;;;;;;4.73;4.20;;;13.50;97.20;;;;;;1695043;29;20295;-69
2022/09/23 07:36:46;;;;;;;4.90;3.50;;;13.50;97.20;;;;;;1694740;29;20443;-70
2022/09/23 07:37:38;;;;;;;4.07;3.67;;;13.50;97.20;;;;;;1694836;29;20204;-69
2022/09/23 07:38:30;;;;;;;10.20;4.15;;;13.60;97.20;;;;;;1695058;29;20211;-69
2022/09/23 07:39:22;;;;;;;3.92;3.60;;;13.60;97.20;;;;;;1694478;29;20569;-69
2022/09/23 07:40:12;;;;;;;3.50;3.20;;;13.60;97.20;;;;;;1694840;29;20219;-69
2022/09/23 07:41:06;;;;;;;4.47;3.60;;;13.70;97.20;;;;;;1694893;29;20214;-69
2022/09/23 07:41:58;;;;;;;3.45;3.10;;;13.70;97.20;;;;;;1694724;29;20220;-69
2022/09/23 07:42:50;;;;;;;5.65;3.50;;;13.70;97.20;;;;;;1694930;29;20263;-69
2022/09/23 07:43:41;;;;;;;5.13;4.20;;;13.70;97.20;;;;;;1694900;29;20211;-69
2022/09/23 07:44:33;;;;;;;4.07;3.67;;;13.70;97.20;;;;;;1694942;29;20703;-70
2022/09/23 07:45:24;;;;;;;4.65;3.53;;;13.80;97.20;;;;;;1694652;29;20212;-69
2022/09/23 07:46:17;;;;;;;4.20;3.80;;;13.80;97.20;;;;;;1694967;29;20634;-69
2022/09/23 07:47:08;;;;;;;4.07;3.08;;;13.80;97.20;;;;;;1694745;29;20219;-70
2022/09/23 07:48:00;;;;;;;4.10;3.53;;;13.90;97.20;;;;;;1694818;29;20299;-69
2022/09/23 07:48:52;;;;;;;4.03;3.63;;;13.90;97.20;;;;;;1694762;29;20212;-69
2022/09/23 07:49:43;;;;;;;4.15;3.75;;;13.90;97.20;;;;;;1694354;29;20196;-70
2022/09/23 07:50:34;;;;;;;3.60;3.30;;;13.90;97.20;;;;;;1694437;29;20200;-70
2022/09/23 07:51:29;;;;;;;3.90;3.30;;;13.90;97.20;;;;;;1694713;29;20210;-70
2022/09/23 07:52:20;;;;;;;3.63;3.33;;;14.00;97.20;;;;;;1694398;29;20220;-69
2022/09/23 07:53:13;;;;;;;4.50;3.50;;;14.00;97.20;;;;;;1694775;29;20214;-69
2022/09/23 07:54:07;;;;;;;4.50;3.10;;;14.00;97.20;;;;;;1694686;29;20294;-69
2022/09/23 07:54:58;;;;;;;3.92;3.40;;;14.00;97.20;;;;;;1694733;29;20207;-69
2022/09/23 07:55:53;;;;;;;3.53;3.33;;;14.10;97.20;;;;;;1694761;29;20204;-69
2022/09/23 07:56:46;;;;;;;4.25;3.70;;;14.10;97.20;;;;;;1694549;29;20259;-69
2022/09/23 07:57:36;;;;;;;3.85;3.55;;;14.10;97.20;;;;;;1694732;29;20638;-69
2022/09/23 07:58:28;;;;;;;4.20;3.90;;;14.10;97.20;;;;;;1694741;29;20578;-69
2022/09/23 07:59:20;;;;;;;4.28;3.97;;;14.10;97.20;;;;;;1694080;29;20301;-70
2022/09/23 08:00:12;;;;;;;4.80;4.03;;;14.20;97.20;;;;;;1694698;29;20212;-69
2022/09/23 08:01:06;;;;;;;4.53;4.13;;;14.20;97.20;;;;;;1694618;29;20587;-69
2022/09/23 08:01:57;;;;;;;3.53;3.22;;;14.20;97.20;;;;;;1694168;29;20251;-69
2022/09/23 08:02:50;;;;;;;3.40;3.20;;;14.20;97.20;;;;;;1694816;29;20226;-69
2022/09/23 08:03:44;;;;;;;3.55;3.25;;;14.20;97.20;;;;;;1694605;29;20729;-70
2022/09/23 08:04:36;;;;;;;4.88;4.38;;;14.20;97.20;;;;;;1694611;29;20196;-70
2022/09/23 08:05:27;;;;;;;4.57;4.20;;;14.20;97.20;;;;;;1694693;29;20231;-69
2022/09/23 08:06:19;;;;;;;3.03;2.83;;;14.30;97.20;;;;;;1694601;29;20575;-70
2022/09/23 08:07:13;;;;;;;3.95;3.25;;;14.30;97.20;;;;;;1694481;29;20548;-70
2022/09/23 08:08:05;;;;;;;3.60;3.30;;;14.30;97.20;;;;;;1694603;29;20208;-70
2022/09/23 08:08:58;;;;;;;3.80;3.50;;;14.30;97.20;;;;;;1694660;29;20230;-70
2022/09/23 08:09:50;;;;;;;3.38;3.08;;;14.30;97.20;;;;;;1694294;29;20207;-70
2022/09/23 08:10:41;;;;;;;3.40;3.10;;;14.20;97.20;;;;;;1694630;29;20243;-70
2022/09/23 08:11:34;;;;;;;4.43;3.10;;;14.20;97.20;;;;;;1694420;29;20199;-70
2022/09/23 08:12:25;;;;;;;3.40;3.20;;;14.20;97.20;;;;;;1694533;29;20314;-69
2022/09/23 08:13:16;;;;;;;3.50;3.30;;;14.20;97.20;;;;;;1694570;29;20211;-70
2022/09/23 08:14:08;;;;;;;3.23;3.03;;;14.30;97.20;;;;;;1694415;29;20204;-70
2022/09/23 08:14:59;;;;;;;3.58;3.28;;;14.30;97.20;;;;;;1694474;29;20204;-70
2022/09/23 08:15:51;;;;;;;3.30;3.00;;;14.30;97.20;;;;;;1694626;29;20741;-70
2022/09/23 08:16:43;;;;;;;3.35;3.05;;;14.30;97.20;;;;;;1694386;29;20200;-70
2022/09/23 08:17:35;;;;;;;3.20;3.00;;;14.40;97.20;;;;;;1694507;29;20258;-69
2022/09/23 08:18:26;;;;;;;3.22;3.03;;;14.40;97.20;;;;;;1694629;29;20208;-69
2022/09/23 08:19:18;;;;;;;3.95;2.97;;;14.40;97.20;;;;;;1694036;29;20688;-70
2022/09/23 08:20:43;;;;;;;3.35;2.55;;;14.40;97.20;;;;;;1694532;29;20207;-69
2022/09/23 08:21:22;;;;;;;2.88;2.58;;;14.40;97.20;;;;;;1694234;29;20212;-70
2022/09/23 08:22:16;;;;;;;3.20;2.90;;;14.50;97.20;;;;;;1694413;29;20231;-70
2022/09/23 08:23:07;;;;;;;4.05;3.10;;;14.50;97.20;;;;;;1694529;29;20460;-69
2022/09/23 08:23:59;;;;;;;4.07;3.30;;;14.50;97.20;;;;;;1693965;29;20204;-70
2022/09/23 08:24:49;;;;;;;3.75;3.20;;;14.50;97.20;;;;;;1694460;29;20448;-70
2022/09/23 08:25:41;;;;;;;3.70;2.90;;;14.50;97.20;;;;;;1694542;29;20208;-69
2022/09/23 08:26:33;;;;;;;3.53;3.22;;;14.60;97.20;;;;;;1694435;29;20211;-70
2022/09/23 08:27:26;;;;;;;3.90;3.35;;;14.60;97.20;;;;;;1694335;29;20209;-70
2022/09/23 08:28:17;;;;;;;3.60;3.30;;;14.60;97.20;;;;;;1694295;29;20296;-70
2022/09/23 08:29:11;;;;;;;2.90;2.70;;;14.60;97.20;;;;;;1693894;29;20263;-70
2022/09/23 08:30:02;;;;;;;3.60;3.30;;;14.60;97.20;;;;;;1694479;29;20208;-70
2022/09/23 08:30:55;;;;;;;3.53;3.30;;;14.60;97.20;;;;;;1694334;29;20659;-71
2022/09/23 08:31:46;;;;;;;3.92;3.38;;;14.60;97.20;;;;;;1694389;29;20700;-70
2022/09/23 08:32:38;;;;;;;3.50;3.17;;;14.60;97.20;;;;;;1694394;29;20290;-69
2022/09/23 08:33:29;;;;;;;3.53;3.22;;;14.60;97.20;;;;;;1694432;29;20215;-69
2022/09/23 08:34:22;;;;;;;3.43;3.10;;;14.70;97.20;;;;;;1694500;29;20214;-70
2022/09/23 08:35:13;;;;;;;2.90;2.70;;;14.70;97.20;;;;;;1694467;29;20934;-70
2022/09/23 08:36:06;;;;;;;3.00;2.70;;;14.70;97.20;;;;;;1694474;29;20232;-70
2022/09/23 08:36:57;;;;;;;3.60;3.30;;;14.70;97.20;;;;;;1694161;29;20235;-70
2022/09/23 08:37:50;;;;;;;2.90;2.60;;;14.70;97.20;;;;;;1694614;29;20208;-73
2022/09/23 08:38:41;;;;;;;2.80;2.50;;;14.80;97.20;;;;;;1694303;29;20231;-70
2022/09/23 08:39:33;;;;;;;6.40;3.07;;;14.80;97.20;;;;;;1693840;29;20247;-70
2022/09/23 08:40:24;;;;;;;3.40;3.10;;;14.80;97.20;;;;;;1694529;29;20719;-70
2022/09/23 08:41:23;;;;;;;3.27;3.03;;;14.80;97.20;;;;;;1694314;29;20739;-70
2022/09/23 08:42:20;;;;;;;2.97;2.70;;;14.90;97.20;;;;;;1694261;29;20472;-70
2022/09/23 08:43:21;;;;;;;2.80;2.60;;;14.90;97.20;;;;;;1694487;29;20207;-69
2022/09/23 08:44:18;;;;;;;2.80;2.60;;;15.00;97.20;;;;;;1694407;29;20259;-70
2022/09/23 08:45:14;;;;;;;2.90;2.70;;;15.00;97.20;;;;;;1694242;29;20237;-70
2022/09/23 08:46:10;;;;;;;2.67;2.50;;;15.10;97.20;;;;;;1694411;29;20200;-70
2022/09/23 08:47:10;;;;;;;3.22;3.00;;;15.10;97.20;;;;;;1694205;29;20211;-70
2022/09/23 08:48:06;;;;;;;2.65;2.45;;;15.10;97.20;;;;;;1694493;29;20231;-70
2022/09/23 08:48:59;;;;;;;2.90;2.70;;;15.10;97.20;;;;;;1694395;29;20201;-70
2022/09/23 08:50:00;;;;;;;5.80;3.00;;;15.20;97.20;;;;;;1693973;29;20718;-70
2022/09/23 08:50:57;;;;;;;2.80;2.60;;;15.20;97.20;;;;;;1694244;29;20682;-71
2022/09/23 08:51:50;;;;;;;3.40;2.72;;;15.30;97.20;;;;;;1694442;29;20238;-71
2022/09/23 08:52:47;;;;;;;3.22;2.92;;;15.30;97.20;;;;;;1694236;29;20741;-71
2022/09/23 08:53:41;;;;;;;3.85;2.80;;;15.30;97.20;;;;;;1694450;29;20214;-71
2022/09/23 08:54:33;;;;;;;2.80;2.60;;;15.40;97.20;;;;;;1694340;29;20710;-71
2022/09/23 08:55:33;;;;;;;3.65;2.92;;;15.40;97.20;;;;;;1694341;29;20343;-71
2022/09/23 08:56:25;;;;;;;2.95;2.75;;;15.50;97.20;;;;;;1694491;29;20204;-71
2022/09/23 08:57:25;;;;;;;2.83;2.53;;;15.50;97.20;;;;;;1694083;29;20212;-70
2022/09/23 08:58:29;;;;;;;3.47;2.63;;;15.50;97.20;;;;;;1694341;29;20211;-70
2022/09/23 08:59:27;;;;;;;3.05;2.58;;;15.60;97.20;;;;;;1693833;29;20321;-70
2022/09/23 09:00:21;;;;;;;2.92;2.72;;;15.60;97.20;;;;;;1694288;29;20218;-70
2022/09/23 09:01:20;;;;;;;3.55;2.40;;;15.60;97.20;;;;;;1693875;29;20610;-70
2022/09/23 09:02:19;;;;;;;2.95;2.13;;;15.60;97.20;;;;;;1694285;29;20259;-70
2022/09/23 09:03:19;;;;;;;3.08;2.78;;;15.60;97.20;;;;;;1694411;29;20212;-70
2022/09/23 09:04:17;;;;;;;2.47;2.28;;;15.60;97.20;;;;;;1694315;29;20208;-70
2022/09/23 09:05:10;;;;;;;2.70;2.50;;;15.60;97.20;;;;;;1694411;29;20238;-70
2022/09/23 09:06:02;;;;;;;2.88;2.38;;;15.60;97.20;;;;;;1694260;29;20199;-70
2022/09/23 09:06:59;;;;;;;2.80;2.60;;;15.60;97.20;;;;;;1694047;29;20212;-70
2022/09/23 09:07:51;;;;;;;2.60;2.40;;;15.60;97.20;;;;;;1694364;29;20218;-71
2022/09/23 09:08:52;;;;;;;3.40;2.55;;;15.60;97.20;;;;;;1694239;29;20207;-70
2022/09/23 09:09:48;;;;;;;2.90;2.70;;;15.60;97.20;;;;;;1693941;29;20212;-70
2022/09/23 09:10:45;;;;;;;3.00;2.67;;;15.60;97.20;;;;;;1694190;29;20665;-70
2022/09/23 09:11:40;;;;;;;2.97;2.67;;;15.60;97.20;;;;;;1694250;29;20204;-71
2022/09/23 09:12:39;;;;;;;3.10;2.90;;;15.50;97.20;;;;;;1694276;29;20591;-71
2022/09/23 09:13:41;;;;;;;3.00;2.80;;;15.50;97.20;;;;;;1694358;29;20614;-71
2022/09/23 09:14:41;;;;;;;2.55;2.35;;;15.50;97.20;;;;;;1686475;29;20204;-70
2022/09/23 09:15:42;;;;;;;6.07;2.72;;;15.50;97.20;;;;;;1691436;29;20684;-70
2022/09/23 09:16:47;;;;;;;3.25;2.17;;;15.50;97.20;;;;;;1691527;29;20243;-70
2022/09/23 09:17:45;;;;;;;4.47;2.30;;;15.60;97.20;;;;;;1693858;29;20659;-69
2022/09/23 09:18:46;;;;;;;4.85;2.78;;;15.60;97.20;;;;;;1690612;29;20211;-69
2022/09/23 09:19:52;;;;;;;2.70;2.50;;;15.70;97.20;;;;;;1693606;29;20196;-69
2022/09/23 09:20:55;;;;;;;3.88;2.20;;;15.70;97.20;;;;;;1694232;29;20211;-70
2022/09/23 09:21:49;;;;;;;2.97;2.67;;;15.80;97.20;;;;;;1693145;29;20682;-70
2022/09/23 09:22:49;;;;;;;3.10;2.80;;;15.90;97.20;;;;;;1694100;29;20200;-70
2022/09/23 09:23:50;;;;;;;2.95;2.53;;;15.90;97.20;;;;;;1694267;29;20228;-70
2022/09/23 09:24:45;;;;;;;2.67;2.38;;;16.00;97.20;;;;;;1694379;29;20219;-69
2022/09/23 09:25:43;;;;;;;2.78;2.50;;;16.00;97.20;;;;;;1694122;29;20208;-70
2022/09/23 09:26:34;;;;;;;2.75;2.55;;;16.10;97.20;;;;;;1694275;29;20215;-70
2022/09/23 09:27:26;;;;;;;2.72;2.40;;;16.20;97.20;;;;;;1694087;29;20251;-70
2022/09/23 09:28:22;;;;;;;4.22;2.47;;;16.20;97.20;;;;;;1694202;29;20250;-70
2022/09/23 09:29:17;;;;;;;3.20;2.90;;;16.30;97.20;;;;;;1693826;29;20217;-70
2022/09/23 09:30:13;;;;;;;3.30;3.00;;;16.30;97.20;;;;;;1694220;29;20272;-70
2022/09/23 09:31:20;;;;;;;3.13;2.75;;;16.30;97.20;;;;;;1694145;29;20691;-70
2022/09/23 09:32:22;;;;;;;2.08;1.92;;;16.40;97.20;;;;;;1694298;29;20228;-69
2022/09/23 09:33:16;;;;;;;3.65;2.40;;;16.40;97.20;;;;;;1694375;29;20302;-70
2022/09/23 09:34:15;;;;;;;3.33;2.65;;;16.50;97.20;;;;;;1694073;29;20259;-70
2022/09/23 09:35:18;;;;;;;2.95;2.50;;;16.60;97.20;;;;;;1694117;29;20200;-70
2022/09/23 09:36:22;;;;;;;3.47;2.33;;;16.60;97.20;;;;;;1694081;29;20211;-70